Time;durP1;ratioP1;P1;durP2;ratioP2;P2;SDS_P1;SDS_P2;PMS_P1;PMS_P2;Temp;Humidity;BMP_temperature;BMP_pressure;BME280_temperature;BME280_humidity;BME280_pressure;Samples;Min_cycle;Max_cycle;Signal;HPM_P1;HPM_P2
2021/06/12 00:01:46;;;;;;;15.27;6.18;;;487.00;2176.00;;;;;;4864674;29;20036;-83
2021/06/12 00:04:12;;;;;;;15.85;6.32;;;487.00;2176.00;;;;;;4864569;29;20511;-79
2021/06/12 00:06:37;;;;;;;11.25;5.72;;;487.00;2176.00;;;;;;4881299;29;20535;-79
2021/06/12 00:09:06;;;;;;;12.50;6.05;;;486.80;2176.00;;;;;;4881028;29;20036;-79
2021/06/12 00:11:31;;;;;;;12.70;6.47;;;486.80;2176.00;;;;;;4880704;29;20031;-77
2021/06/12 00:13:57;;;;;;;11.43;6.70;;;486.80;2176.00;;;;;;4864459;29;20029;-80
2021/06/12 00:16:23;;;;;;;9.10;6.25;;;486.80;2201.60;;;;;;4864044;29;20499;-84
2021/06/12 00:18:49;;;;;;;10.73;6.00;;;486.70;2176.00;;;;;;4865339;29;20440;-79
2021/06/12 00:21:15;;;;;;;11.55;5.63;;;486.70;2201.60;;;;;;4880640;29;20506;-79
2021/06/12 00:23:41;;;;;;;10.48;6.05;;;486.70;2176.00;;;;;;4863865;29;20057;-79
2021/06/12 00:26:06;;;;;;;14.18;7.07;;;486.70;2176.00;;;;;;4864024;29;20033;-80
2021/06/12 00:28:32;;;;;;;9.48;6.63;;;486.60;2201.60;;;;;;4863966;29;20044;-83
2021/06/12 00:30:58;;;;;;;9.73;6.47;;;486.50;2201.60;;;;;;4863739;29;20038;-79
2021/06/12 00:33:24;;;;;;;14.13;7.20;;;486.50;2201.60;;;;;;4863939;29;20475;-79
2021/06/12 00:35:49;;;;;;;8.82;5.95;;;486.40;2227.20;;;;;;4863907;29;20029;-79
2021/06/12 00:38:15;;;;;;;12.20;5.90;;;461.70;2227.20;;;;;;4863464;29;20127;-83
2021/06/12 00:40:41;;;;;;;11.43;6.72;;;461.70;2227.20;;;;;;4864100;29;20029;-80
2021/06/12 00:43:07;;;;;;;8.93;7.00;;;461.70;2227.20;;;;;;4863658;29;20112;-78
2021/06/12 00:45:33;;;;;;;14.55;6.95;;;461.70;2227.20;;;;;;4863711;29;20036;-80
2021/06/12 00:48:01;;;;;;;9.98;6.20;;;461.70;2227.20;;;;;;4863507;29;20021;-79
2021/06/12 00:50:30;;;;;;;10.75;7.70;;;461.70;2227.20;;;;;;4863527;29;20669;-79
2021/06/12 00:52:57;;;;;;;10.18;6.70;;;486.40;2227.20;;;;;;4880012;29;20041;-84
2021/06/12 00:55:22;;;;;;;10.20;6.28;;;486.40;2227.20;;;;;;4862973;29;20029;-79
2021/06/12 00:57:48;;;;;;;11.60;6.63;;;486.50;2227.20;;;;;;4862769;29;20501;-81
2021/06/12 01:00:17;;;;;;;13.95;6.68;;;486.40;2227.20;;;;;;4862683;29;20040;-82
2021/06/12 01:02:44;;;;;;;10.75;6.50;;;486.50;2227.20;;;;;;4860896;29;20078;-81
2021/06/12 01:05:13;;;;;;;9.30;6.65;;;486.50;2227.20;;;;;;4862736;29;20036;-81
2021/06/12 01:07:39;;;;;;;12.75;7.18;;;486.40;2227.20;;;;;;4862581;29;20081;-81
2021/06/12 01:10:08;;;;;;;13.23;7.18;;;461.70;2252.80;;;;;;4879205;29;20033;-82
2021/06/12 01:13:08;;;;;;;9.07;6.05;;;486.40;2252.80;;;;;;4863025;29;20025;-81
2021/06/12 01:15:52;;;;;;;12.88;8.05;;;486.40;2227.20;;;;;;4788964;29;20035;-81
2021/06/12 01:18:22;;;;;;;13.57;7.40;;;461.70;2252.80;;;;;;4803460;29;20019;-81
2021/06/12 01:21:22;;;;;;;12.75;7.30;;;461.70;2252.80;;;;;;4803679;29;20057;-81
2021/06/12 01:24:03;;;;;;;12.35;7.72;;;461.70;2252.80;;;;;;4802247;29;20098;-81
2021/06/12 01:27:21;;;;;;;12.82;6.93;;;461.70;2252.80;;;;;;4803819;29;20035;-81
2021/06/12 01:30:05;;;;;;;12.43;7.05;;;461.70;2252.80;;;;;;4714803;30;20139;-82
2021/06/12 01:32:35;;;;;;;12.75;7.20;;;486.40;2252.80;;;;;;4714715;30;20396;-81
2021/06/12 01:35:27;;;;;;;19.85;8.43;;;461.70;2252.80;;;;;;4714865;30;20097;-81
2021/06/12 01:37:54;;;;;;;10.73;6.97;;;461.50;2278.40;;;;;;4689485;30;20038;-82
2021/06/12 01:40:26;;;;;;;13.25;7.70;;;461.40;2278.40;;;;;;4687813;30;20181;-82
2021/06/12 01:42:53;;;;;;;18.30;7.55;;;461.40;2278.40;;;;;;4690506;30;20055;-82
2021/06/12 01:45:20;;;;;;;11.23;7.18;;;461.40;2278.40;;;;;;4687928;30;20038;-82
2021/06/12 01:47:47;;;;;;;12.65;7.55;;;461.40;2278.40;;;;;;4689080;30;20576;-82
2021/06/12 01:50:14;;;;;;;11.10;7.25;;;461.40;2278.40;;;;;;4689161;30;20057;-82
2021/06/12 01:52:42;;;;;;;11.18;7.30;;;461.50;2278.40;;;;;;4718978;30;20503;-82
2021/06/12 01:55:12;;;;;;;11.25;7.45;;;461.50;2278.40;;;;;;4726563;30;20107;-82
2021/06/12 01:57:42;;;;;;;14.07;8.25;;;461.50;2278.40;;;;;;4741857;30;20166;-82
2021/06/12 02:00:10;;;;;;;14.52;7.63;;;461.60;2278.40;;;;;;4740492;30;20511;-81
2021/06/12 02:02:38;;;;;;;10.27;6.95;;;461.70;2252.80;;;;;;4725704;30;20040;-80
2021/06/12 02:05:05;;;;;;;14.48;7.45;;;461.70;2252.80;;;;;;4760051;30;20453;-80
2021/06/12 02:07:32;;;;;;;11.20;7.35;;;461.70;2252.80;;;;;;4817916;29;20504;-79
2021/06/12 02:10:00;;;;;;;12.27;7.50;;;461.50;2278.40;;;;;;4813788;29;20097;-80
2021/06/12 02:12:28;;;;;;;12.38;7.72;;;461.50;2278.40;;;;;;4812460;29;20018;-81
2021/06/12 02:14:59;;;;;;;15.85;7.57;;;461.60;2278.40;;;;;;4836173;29;20037;-80
2021/06/12 02:17:28;;;;;;;14.15;7.40;;;461.70;2278.40;;;;;;4874678;29;20479;-81
2021/06/12 02:19:54;;;;;;;9.38;7.05;;;461.70;2252.80;;;;;;4860950;29;20029;-80
2021/06/12 02:22:20;;;;;;;12.77;7.90;;;461.70;2252.80;;;;;;4860634;29;20052;-79
2021/06/12 02:24:46;;;;;;;15.30;7.15;;;461.70;2252.80;;;;;;4861845;29;20083;-80
2021/06/12 02:27:13;;;;;;;9.75;6.35;;;461.70;2252.80;;;;;;4861622;29;20502;-80
2021/06/12 02:29:40;;;;;;;8.93;6.63;;;461.70;2252.80;;;;;;4860701;29;20045;-80
2021/06/12 02:32:11;;;;;;;15.30;7.43;;;461.60;2278.40;;;;;;4875964;29;20025;-80
2021/06/12 02:34:37;;;;;;;9.73;6.18;;;461.70;2278.40;;;;;;4861694;29;20029;-79
2021/06/12 02:37:05;;;;;;;14.57;7.13;;;461.70;2278.40;;;;;;4861052;29;20032;-80
2021/06/12 02:39:32;;;;;;;11.98;6.90;;;461.70;2278.40;;;;;;4861475;29;20116;-80
2021/06/12 02:41:58;;;;;;;14.85;7.32;;;486.50;2278.40;;;;;;4861794;29;20518;-80
2021/06/12 02:44:24;;;;;;;11.80;7.05;;;461.70;2278.40;;;;;;4877901;29;20028;-80
2021/06/12 02:46:51;;;;;;;11.93;7.07;;;461.70;2252.80;;;;;;4861498;29;20029;-80
2021/06/12 02:49:19;;;;;;;9.65;6.63;;;461.70;2278.40;;;;;;4861092;29;20051;-80
2021/06/12 02:51:52;;;;;;;15.63;6.20;;;461.70;2278.40;;;;;;4858656;29;20124;-80
2021/06/12 02:54:23;;;;;;;10.73;6.90;;;461.60;2278.40;;;;;;4861271;29;20031;-80
2021/06/12 02:56:50;;;;;;;12.02;7.88;;;461.50;2304.00;;;;;;4859072;29;20444;-80
2021/06/12 02:59:17;;;;;;;11.98;7.05;;;461.40;2304.00;;;;;;4878229;29;20025;-80
2021/06/12 03:01:45;;;;;;;16.60;7.70;;;461.30;2304.00;;;;;;4877600;29;20028;-80
2021/06/12 03:04:14;;;;;;;10.60;6.70;;;461.20;2304.00;;;;;;4861207;29;20092;-80
2021/06/12 03:06:42;;;;;;;13.25;7.90;;;461.10;2329.60;;;;;;4860961;29;20172;-80
2021/06/12 03:09:15;;;;;;;12.20;7.75;;;461.20;2329.60;;;;;;4858785;29;20033;-79
2021/06/12 03:11:43;;;;;;;13.25;7.13;;;461.20;2329.60;;;;;;4861316;29;20123;-80
2021/06/12 03:14:11;;;;;;;13.05;7.55;;;461.20;2329.60;;;;;;4877745;29;20073;-80
2021/06/12 03:16:39;;;;;;;9.52;6.68;;;461.30;2329.60;;;;;;4861207;29;20492;-80
2021/06/12 03:19:06;;;;;;;9.07;6.63;;;461.40;2304.00;;;;;;4877691;29;20060;-80
2021/06/12 03:21:33;;;;;;;11.20;6.70;;;461.40;2329.60;;;;;;4861047;29;20033;-80
2021/06/12 03:24:00;;;;;;;9.02;7.00;;;461.10;2355.20;;;;;;4860959;29;20025;-80
2021/06/12 03:26:27;;;;;;;10.48;6.70;;;460.90;2380.80;;;;;;4858602;29;20025;-80
2021/06/12 03:28:54;;;;;;;16.17;7.60;;;460.80;2380.80;;;;;;4877611;29;20053;-80
2021/06/12 03:31:20;;;;;;;12.75;6.75;;;460.80;2380.80;;;;;;4878293;29;20045;-80
2021/06/12 03:33:46;;;;;;;7.63;6.28;;;460.90;2380.80;;;;;;4864357;29;20047;-80
2021/06/12 03:36:12;;;;;;;10.55;6.55;;;461.10;2380.80;;;;;;4864258;29;20114;-81
2021/06/12 03:38:39;;;;;;;11.55;6.63;;;461.10;2380.80;;;;;;4864507;29;20028;-79
2021/06/12 03:41:05;;;;;;;11.35;7.68;;;460.90;2380.80;;;;;;4864270;29;20032;-80
2021/06/12 03:43:32;;;;;;;10.50;7.85;;;436.10;2355.20;;;;;;4864531;29;20025;-80
2021/06/12 03:45:59;;;;;;;13.32;7.43;;;461.00;2380.80;;;;;;4863920;29;20021;-80
2021/06/12 03:48:25;;;;;;;10.73;7.63;;;461.10;2380.80;;;;;;4864280;29;20510;-80
2021/06/12 03:50:52;;;;;;;20.85;8.77;;;461.20;2380.80;;;;;;4863947;29;20064;-80
2021/06/12 03:53:20;;;;;;;9.82;7.60;;;461.40;2380.80;;;;;;4864572;29;20040;-81
2021/06/12 03:55:54;;;;;;;11.35;7.70;;;461.30;2380.80;;;;;;4864493;29;20184;-82
2021/06/12 03:58:20;;;;;;;15.38;8.75;;;460.80;2380.80;;;;;;4864336;29;20140;-81
2021/06/12 04:00:46;;;;;;;12.63;7.65;;;435.90;2355.20;;;;;;4863776;29;20551;-81
2021/06/12 04:03:12;;;;;;;11.60;8.13;;;436.00;2355.20;;;;;;4864216;29;20033;-81
2021/06/12 04:05:37;;;;;;;13.20;7.60;;;460.80;2380.80;;;;;;4863944;29;20033;-81
2021/06/12 04:08:03;;;;;;;12.77;7.40;;;460.90;2380.80;;;;;;4864210;29;20395;-81
2021/06/12 04:10:29;;;;;;;12.02;7.20;;;460.90;2380.80;;;;;;4864330;29;20149;-81
2021/06/12 04:12:55;;;;;;;12.63;7.80;;;461.10;2380.80;;;;;;4863909;29;20112;-81
2021/06/12 04:15:21;;;;;;;11.80;7.30;;;461.10;2380.80;;;;;;4864044;29;20067;-81
2021/06/12 04:17:49;;;;;;;12.02;8.20;;;461.40;2380.80;;;;;;4863953;29;20539;-81
2021/06/12 04:20:15;;;;;;;11.52;7.05;;;461.40;2380.80;;;;;;4863887;29;20033;-82
2021/06/12 04:22:40;;;;;;;10.50;7.50;;;461.50;2380.80;;;;;;4860830;29;20067;-81
2021/06/12 04:25:07;;;;;;;11.75;7.97;;;461.20;2380.80;;;;;;4860829;29;20397;-81
2021/06/12 04:27:33;;;;;;;11.73;7.65;;;461.30;2380.80;;;;;;4861104;29;20018;-82
2021/06/12 04:30:00;;;;;;;16.23;7.45;;;461.40;2380.80;;;;;;4860369;29;20128;-81
2021/06/12 04:32:26;;;;;;;9.40;7.35;;;461.50;2380.80;;;;;;4860717;29;20026;-81
2021/06/12 04:34:52;;;;;;;12.50;7.43;;;461.70;2380.80;;;;;;4860614;29;20033;-81
2021/06/12 04:37:17;;;;;;;12.52;7.80;;;461.70;2380.80;;;;;;4862152;29;20102;-80
2021/06/12 04:39:43;;;;;;;15.07;7.13;;;461.70;2380.80;;;;;;4860378;29;20029;-81
2021/06/12 04:42:10;;;;;;;14.38;7.47;;;461.70;2380.80;;;;;;4859153;29;20045;-79
2021/06/12 04:44:36;;;;;;;8.50;7.18;;;461.70;2380.80;;;;;;4859536;29;20536;-81
2021/06/12 04:47:03;;;;;;;13.75;8.18;;;486.40;2380.80;;;;;;4860132;29;20062;-82
2021/06/12 04:49:29;;;;;;;10.50;7.55;;;486.40;2380.80;;;;;;4858088;29;20026;-82
2021/06/12 04:51:55;;;;;;;18.02;8.32;;;486.40;2380.80;;;;;;4860370;29;20037;-82
2021/06/12 04:54:21;;;;;;;11.77;8.45;;;486.40;2380.80;;;;;;4860625;29;20026;-82
2021/06/12 04:56:46;;;;;;;14.20;8.05;;;486.40;2380.80;;;;;;4860235;29;20077;-83
2021/06/12 04:59:12;;;;;;;9.38;7.43;;;486.50;2380.80;;;;;;4860292;29;20056;-82
2021/06/12 05:01:38;;;;;;;13.55;7.72;;;486.60;2380.80;;;;;;4860905;29;20029;-80
2021/06/12 05:04:04;;;;;;;14.43;7.78;;;486.60;2380.80;;;;;;4860951;29;20032;-79
2021/06/12 05:06:29;;;;;;;12.43;8.23;;;486.70;2380.80;;;;;;4859483;29;20028;-79
2021/06/12 05:08:55;;;;;;;10.68;6.57;;;486.70;2380.80;;;;;;4861057;29;20029;-87
2021/06/12 05:11:21;;;;;;;11.50;7.60;;;486.80;2380.80;;;;;;4859532;29;20524;-80
2021/06/12 05:13:46;;;;;;;10.95;7.80;;;486.90;2380.80;;;;;;4859234;29;20504;-82
2021/06/12 05:16:12;;;;;;;10.55;7.45;;;487.00;2355.20;;;;;;4856631;29;20136;-85
2021/06/12 05:18:43;;;;;;;8.20;6.97;;;487.00;2329.60;;;;;;4860413;29;20018;-82
2021/06/12 05:21:10;;;;;;;10.85;7.32;;;487.00;2355.20;;;;;;4859097;29;20085;-80
2021/06/12 05:23:36;;;;;;;12.25;6.45;;;487.00;2329.60;;;;;;4859493;29;20049;-81
2021/06/12 05:26:06;;;;;;;12.85;7.68;;;487.00;2329.60;;;;;;4859896;29;20061;-81
2021/06/12 05:28:32;;;;;;;10.45;7.18;;;487.10;2329.60;;;;;;4859273;29;20032;-82
2021/06/12 05:30:58;;;;;;;10.05;6.95;;;487.10;2329.60;;;;;;4860324;29;20046;-81
2021/06/12 05:33:25;;;;;;;12.02;7.03;;;487.30;2329.60;;;;;;4858992;29;20090;-80
2021/06/12 05:35:52;;;;;;;10.02;7.80;;;487.30;2329.60;;;;;;4858597;29;20089;-80
2021/06/12 05:38:19;;;;;;;10.95;7.18;;;512.00;2329.60;;;;;;4860315;29;20021;-80
2021/06/12 05:40:45;;;;;;;13.02;7.63;;;512.10;2329.60;;;;;;4858928;29;20032;-80
2021/06/12 05:43:11;;;;;;;9.55;7.63;;;512.20;2329.60;;;;;;4860293;29;20041;-82
2021/06/12 05:45:37;;;;;;;13.32;6.97;;;512.20;2304.00;;;;;;4858917;29;20048;-79
2021/06/12 05:48:03;;;;;;;8.60;6.25;;;512.20;2304.00;;;;;;4859906;29;20026;-79
2021/06/12 05:50:29;;;;;;;8.90;6.53;;;512.20;2304.00;;;;;;4858695;29;20064;-79
2021/06/12 05:52:55;;;;;;;8.93;7.00;;;512.40;2304.00;;;;;;4859811;29;20045;-78
2021/06/12 05:55:21;;;;;;;9.75;7.65;;;512.40;2304.00;;;;;;4858057;29;20043;-78
2021/06/12 05:57:47;;;;;;;11.55;7.28;;;512.50;2304.00;;;;;;4850047;29;20036;-82
2021/06/12 06:00:13;;;;;;;12.55;7.07;;;512.50;2329.60;;;;;;4853238;29;20480;-82
2021/06/12 06:02:39;;;;;;;12.88;6.95;;;512.70;2329.60;;;;;;4859373;29;20026;-77
2021/06/12 06:05:05;;;;;;;9.45;6.38;;;512.70;2304.00;;;;;;4859735;29;20037;-79
2021/06/12 06:07:31;;;;;;;8.73;6.40;;;512.80;2304.00;;;;;;4859790;29;20104;-81
2021/06/12 06:09:57;;;;;;;9.82;7.43;;;512.90;2278.40;;;;;;4853352;29;20125;-80
2021/06/12 06:12:23;;;;;;;17.35;6.40;;;512.90;2278.40;;;;;;4851978;29;20055;-81
2021/06/12 06:14:49;;;;;;;13.48;6.32;;;537.70;2278.40;;;;;;4847093;29;20138;-79
2021/06/12 06:17:15;;;;;;;9.85;6.13;;;537.70;2201.60;;;;;;4859239;29;20039;-78
2021/06/12 06:19:40;;;;;;;8.25;6.07;;;537.70;2176.00;;;;;;4858289;29;20068;-79
2021/06/12 06:22:06;;;;;;;16.08;8.02;;;537.80;2176.00;;;;;;4858067;29;20050;-78
2021/06/12 06:24:33;;;;;;;11.70;8.25;;;537.90;2201.60;;;;;;4858312;29;20161;-82
2021/06/12 06:26:59;;;;;;;8.68;6.70;;;538.00;2176.00;;;;;;4858260;29;20093;-80
2021/06/12 06:29:24;;;;;;;9.32;7.10;;;538.10;2227.20;;;;;;4859265;29;20500;-79
2021/06/12 06:31:50;;;;;;;7.43;6.32;;;538.10;2176.00;;;;;;4858345;29;20494;-79
2021/06/12 06:34:16;;;;;;;12.10;6.50;;;538.10;2201.60;;;;;;4858377;29;20568;-78
2021/06/12 06:36:42;;;;;;;7.93;6.35;;;538.10;2201.60;;;;;;4858179;29;20116;-80
2021/06/12 06:39:08;;;;;;;11.32;7.35;;;538.20;2201.60;;;;;;4858279;29;20037;-80
2021/06/12 06:41:33;;;;;;;8.90;6.07;;;538.20;2201.60;;;;;;4858400;29;20026;-80
2021/06/12 06:43:59;;;;;;;10.90;6.72;;;538.30;2150.40;;;;;;4858152;29;20022;-77
2021/06/12 06:46:25;;;;;;;10.10;7.13;;;538.30;2176.00;;;;;;4859156;29;20592;-83
2021/06/12 06:48:51;;;;;;;12.27;7.70;;;538.40;2201.60;;;;;;4858053;29;20116;-80
2021/06/12 06:51:17;;;;;;;12.65;7.28;;;538.50;2150.40;;;;;;4859513;29;20121;-81
2021/06/12 06:53:43;;;;;;;12.80;7.60;;;538.50;2124.80;;;;;;4857917;29;20029;-80
2021/06/12 06:56:08;;;;;;;13.40;9.15;;;563.20;2176.00;;;;;;4858196;29;20036;-81
2021/06/12 06:58:35;;;;;;;10.25;7.82;;;563.40;2201.60;;;;;;4859675;29;20447;-82
2021/06/12 07:01:01;;;;;;;9.35;6.72;;;563.50;2201.60;;;;;;4858403;29;20388;-82
2021/06/12 07:03:26;;;;;;;11.95;6.82;;;563.60;2201.60;;;;;;4858334;29;20079;-79
2021/06/12 07:05:55;;;;;;;10.13;7.20;;;563.70;2176.00;;;;;;4858463;29;20126;-81
2021/06/12 07:08:21;;;;;;;10.55;6.38;;;563.70;2150.40;;;;;;4862193;29;20029;-82
2021/06/12 07:10:49;;;;;;;13.57;6.90;;;563.80;2176.00;;;;;;4861331;29;20109;-80
2021/06/12 07:13:22;;;;;;;13.10;6.15;;;563.90;2150.40;;;;;;4861685;29;20361;-82
2021/06/12 07:15:48;;;;;;;9.82;6.75;;;563.90;2176.00;;;;;;4862783;29;20108;-81
2021/06/12 07:18:14;;;;;;;10.93;5.85;;;564.00;2176.00;;;;;;4861508;29;20162;-78
2021/06/12 07:20:41;;;;;;;8.50;5.97;;;564.10;2150.40;;;;;;4861805;29;20041;-81
2021/06/12 07:23:07;;;;;;;11.98;7.22;;;588.80;2099.20;;;;;;4861702;29;20056;-82
2021/06/12 07:25:32;;;;;;;7.55;5.88;;;588.90;2099.20;;;;;;4862010;29;20029;-82
2021/06/12 07:27:59;;;;;;;12.68;7.30;;;589.00;2073.60;;;;;;4861740;29;20543;-82
2021/06/12 07:30:25;;;;;;;10.27;6.30;;;589.10;2048.00;;;;;;4861695;29;20069;-82
2021/06/12 07:32:51;;;;;;;7.60;6.55;;;589.20;1996.80;;;;;;4861436;29;20484;-81
2021/06/12 07:35:16;;;;;;;10.98;6.47;;;589.30;1996.80;;;;;;4861893;29;20037;-85
2021/06/12 07:37:42;;;;;;;15.55;5.95;;;589.40;1996.80;;;;;;4861840;29;20060;-83
2021/06/12 07:40:08;;;;;;;10.52;6.38;;;589.40;1971.20;;;;;;4862118;29;20531;-83
2021/06/12 07:42:34;;;;;;;11.10;5.40;;;589.30;1971.20;;;;;;4861928;29;20396;-82
2021/06/12 07:45:00;;;;;;;10.32;6.03;;;589.50;1945.60;;;;;;4861558;29;20059;-84
2021/06/12 07:47:26;;;;;;;10.13;5.53;;;589.60;1971.20;;;;;;4861859;29;20025;-83
2021/06/12 07:49:52;;;;;;;8.02;5.80;;;589.70;1971.20;;;;;;4861320;29;20098;-82
2021/06/12 07:52:18;;;;;;;9.20;5.50;;;614.40;1971.20;;;;;;4861635;29;20045;-82
2021/06/12 07:54:43;;;;;;;8.73;6.55;;;614.50;1945.60;;;;;;4861456;29;20078;-82
2021/06/12 07:57:09;;;;;;;9.90;6.13;;;614.50;1945.60;;;;;;4861314;29;20037;-80
2021/06/12 07:59:35;;;;;;;10.02;5.85;;;614.60;1920.00;;;;;;4861429;29;20025;-82
2021/06/12 08:02:01;;;;;;;8.90;6.80;;;614.70;1894.40;;;;;;4861055;29;20030;-81
2021/06/12 08:04:26;;;;;;;12.13;8.13;;;614.80;1920.00;;;;;;4862484;29;20026;-82
2021/06/12 08:06:52;;;;;;;13.38;9.77;;;614.80;1945.60;;;;;;4861683;29;20045;-83
2021/06/12 08:09:19;;;;;;;11.95;6.00;;;614.80;1894.40;;;;;;4861385;29;20030;-86
2021/06/12 08:11:45;;;;;;;13.20;5.55;;;614.90;1894.40;;;;;;4861719;29;20049;-83
2021/06/12 08:14:11;;;;;;;15.10;5.78;;;615.10;1868.80;;;;;;4861358;29;20025;-83
2021/06/12 08:16:36;;;;;;;9.65;6.60;;;615.10;1894.40;;;;;;4861599;29;20029;-82
2021/06/12 08:19:02;;;;;;;8.40;6.15;;;615.20;1894.40;;;;;;4860718;29;20480;-82
2021/06/12 08:21:28;;;;;;;7.55;5.53;;;615.20;1868.80;;;;;;4860736;29;20057;-83
2021/06/12 08:23:54;;;;;;;12.00;6.03;;;615.20;1868.80;;;;;;4871813;29;20045;-81
2021/06/12 08:26:20;;;;;;;12.68;8.07;;;615.30;1868.80;;;;;;4864084;29;20036;-84
2021/06/12 08:28:46;;;;;;;7.80;6.05;;;615.20;1843.20;;;;;;4864387;29;20029;-83
2021/06/12 08:31:12;;;;;;;13.48;5.75;;;640.00;1817.60;;;;;;4863830;29;20033;-85
2021/06/12 08:33:38;;;;;;;10.30;6.30;;;640.20;1868.80;;;;;;4879769;29;20076;-84
2021/06/12 08:36:05;;;;;;;11.80;5.60;;;640.30;1792.00;;;;;;4870710;29;20060;-85
2021/06/12 08:38:30;;;;;;;10.23;5.13;;;640.30;1766.40;;;;;;4880302;29;20096;-83
2021/06/12 08:40:56;;;;;;;7.15;5.60;;;640.40;1792.00;;;;;;4872605;29;20571;-84
2021/06/12 08:43:25;;;;;;;9.50;5.78;;;640.50;1740.80;;;;;;4877275;29;20021;-85
2021/06/12 08:45:51;;;;;;;13.13;5.13;;;640.70;1766.40;;;;;;4869691;29;20500;-84
2021/06/12 08:48:18;;;;;;;11.02;5.47;;;640.60;1740.80;;;;;;4863513;29;20067;-84
2021/06/12 08:50:45;;;;;;;12.23;7.97;;;640.70;1715.20;;;;;;4863590;29;20047;-83
2021/06/12 08:53:11;;;;;;;7.80;5.07;;;640.60;1715.20;;;;;;4875345;29;20052;-83
2021/06/12 08:55:37;;;;;;;7.72;4.18;;;640.70;1715.20;;;;;;4902282;29;20025;-84
2021/06/12 08:58:02;;;;;;;8.27;5.28;;;640.70;1715.20;;;;;;4882053;29;20076;-84
2021/06/12 09:00:28;;;;;;;7.43;4.53;;;640.80;1664.00;;;;;;4864424;29;20025;-85
2021/06/12 09:03:03;;;;;;;5.85;4.90;;;640.70;1664.00;;;;;;4863419;29;20379;-84
2021/06/12 09:05:48;;;;;;;6.43;4.50;;;640.80;1689.60;;;;;;4863582;29;20081;-84
2021/06/12 09:08:17;;;;;;;9.27;5.25;;;640.90;1689.60;;;;;;4865662;29;20476;-84
2021/06/12 09:10:56;;;;;;;16.13;12.65;;;665.60;1689.60;;;;;;4863204;29;20048;-84
2021/06/12 09:13:36;;;;;;;8.80;5.75;;;665.90;1689.60;;;;;;4861198;29;20040;-84
2021/06/12 09:16:04;;;;;;;11.60;5.05;;;665.90;1689.60;;;;;;4861526;29;20033;-84
2021/06/12 09:18:41;;;;;;;6.35;4.68;;;666.00;1689.60;;;;;;4863197;29;20025;-84
2021/06/12 09:21:29;;;;;;;8.85;5.07;;;666.00;1715.20;;;;;;4861796;29;20116;-84
2021/06/12 09:23:57;;;;;;;9.35;5.05;;;666.20;1664.00;;;;;;4879130;29;20100;-84
2021/06/12 09:26:45;;;;;;;8.98;4.30;;;666.20;1664.00;;;;;;4862876;29;20056;-85
2021/06/12 09:29:12;;;;;;;6.75;4.65;;;666.50;1587.20;;;;;;4868238;29;20033;-86
2021/06/12 09:31:52;;;;;;;7.25;5.35;;;691.20;1612.80;;;;;;4878321;29;20177;-82
2021/06/12 09:34:26;;;;;;;9.52;4.53;;;691.30;1587.20;;;;;;4862004;29;20567;-81
2021/06/12 09:36:52;;;;;;;9.45;4.60;;;691.30;1561.60;;;;;;4862103;29;20025;-81
2021/06/12 09:39:20;;;;;;;7.90;5.00;;;691.50;1587.20;;;;;;4862091;29;20037;-80
2021/06/12 09:41:48;;;;;;;7.68;4.63;;;691.60;1561.60;;;;;;4878583;29;20142;-80
2021/06/12 09:44:28;;;;;;;13.52;4.72;;;691.50;1536.00;;;;;;4878938;29;20491;-81
2021/06/12 09:46:54;;;;;;;7.15;4.20;;;691.60;1561.60;;;;;;4878466;29;20027;-83
2021/06/12 09:49:36;;;;;;;7.45;4.22;;;691.60;1536.00;;;;;;4878567;29;20033;-81
2021/06/12 09:52:04;;;;;;;7.07;4.22;;;691.60;1536.00;;;;;;4860670;29;20041;-81
2021/06/12 09:54:41;;;;;;;5.60;4.32;;;691.80;1484.80;;;;;;4861785;29;20033;-82
2021/06/12 09:57:09;;;;;;;8.30;4.10;;;691.80;1536.00;;;;;;4845051;29;20124;-81
2021/06/12 09:59:43;;;;;;;5.88;4.22;;;691.80;1459.20;;;;;;4861813;29;20058;-83
2021/06/12 10:02:10;;;;;;;8.88;4.60;;;691.80;1510.40;;;;;;4861188;29;20033;-83
2021/06/12 10:04:36;;;;;;;7.30;4.20;;;692.00;1510.40;;;;;;4878476;29;20036;-80
2021/06/12 10:07:02;;;;;;;11.20;4.68;;;691.90;1510.40;;;;;;4878212;29;20029;-80
2021/06/12 10:09:28;;;;;;;8.20;5.35;;;692.00;1459.20;;;;;;4877934;29;20518;-80
2021/06/12 10:11:54;;;;;;;7.22;4.38;;;716.80;1484.80;;;;;;4860503;29;20068;-80
2021/06/12 10:14:21;;;;;;;5.97;3.72;;;717.00;1484.80;;;;;;4861780;29;20021;-80
2021/06/12 10:16:48;;;;;;;7.88;3.88;;;717.20;1382.40;;;;;;4861413;29;20036;-81
2021/06/12 10:19:16;;;;;;;5.40;3.13;;;717.20;1408.00;;;;;;4878107;29;20040;-81
2021/06/12 10:21:42;;;;;;;5.88;3.67;;;717.40;1280.00;;;;;;4861276;29;20101;-80
2021/06/12 10:24:09;;;;;;;7.20;3.97;;;717.50;1280.00;;;;;;4861333;29;20044;-80
2021/06/12 10:26:36;;;;;;;3.85;2.97;;;742.40;1280.00;;;;;;4861422;29;20036;-80
2021/06/12 10:29:04;;;;;;;4.30;3.53;;;717.50;1280.00;;;;;;4877771;29;20069;-80
2021/06/12 10:31:34;;;;;;;8.93;3.80;;;717.70;1254.40;;;;;;4861005;29;20060;-80
2021/06/12 10:34:01;;;;;;;6.60;4.28;;;717.70;1254.40;;;;;;4875310;29;20027;-80
2021/06/12 10:36:34;;;;;;;5.68;3.83;;;742.40;1331.20;;;;;;4861439;29;20032;-83
2021/06/12 10:39:01;;;;;;;8.95;4.25;;;742.50;1331.20;;;;;;4861342;29;20092;-80
2021/06/12 10:41:29;;;;;;;4.35;3.45;;;742.60;1305.60;;;;;;4861933;29;20032;-79
2021/06/12 10:44:02;;;;;;;6.57;3.35;;;742.60;1305.60;;;;;;4881766;29;20025;-80
2021/06/12 10:46:30;;;;;;;6.72;3.80;;;742.80;1280.00;;;;;;4864907;29;20037;-80
2021/06/12 10:49:06;;;;;;;6.05;3.42;;;742.90;1254.40;;;;;;4864896;29;20429;-80
2021/06/12 10:51:33;;;;;;;6.40;3.78;;;742.90;1254.40;;;;;;4881468;29;20456;-81
2021/06/12 10:54:24;;;;;;;5.05;3.60;;;742.80;1280.00;;;;;;4862250;29;20029;-81
2021/06/12 10:57:01;;;;;;;6.97;3.40;;;743.00;1203.20;;;;;;4864603;29;20037;-81
2021/06/12 10:59:33;;;;;;;8.10;3.78;;;742.70;1177.60;;;;;;4880134;29;20103;-80
2021/06/12 11:02:10;;;;;;;6.05;3.63;;;742.80;1228.80;;;;;;4878868;29;20108;-80
2021/06/12 11:04:41;;;;;;;5.68;3.58;;;743.00;1228.80;;;;;;4862236;29;20082;-80
2021/06/12 11:07:37;;;;;;;4.72;3.80;;;743.00;1254.40;;;;;;4864133;29;20044;-80
2021/06/12 11:10:11;;;;;;;10.60;4.05;;;743.10;1203.20;;;;;;4805490;29;20066;-81
2021/06/12 11:12:43;;;;;;;5.28;3.10;;;743.10;1203.20;;;;;;4806127;29;20083;-83
2021/06/12 11:15:12;;;;;;;4.43;3.58;;;743.20;1228.80;;;;;;4805302;29;20119;-82
2021/06/12 11:17:43;;;;;;;7.05;3.80;;;743.30;1228.80;;;;;;4805448;29;20037;-81
2021/06/12 11:20:12;;;;;;;7.18;3.92;;;768.10;1228.80;;;;;;4805718;29;20558;-80
2021/06/12 11:22:37;;;;;;;6.35;3.75;;;743.20;1228.80;;;;;;4789824;29;20047;-81
2021/06/12 11:25:09;;;;;;;8.98;3.88;;;768.00;1280.00;;;;;;4805658;29;20037;-82
2021/06/12 11:27:40;;;;;;;8.10;4.15;;;743.30;1203.20;;;;;;4805890;29;20046;-82
2021/06/12 11:30:18;;;;;;;5.45;3.78;;;743.10;1254.40;;;;;;4803776;29;20058;-81
2021/06/12 11:32:56;;;;;;;5.35;3.55;;;742.90;1280.00;;;;;;4799883;29;20550;-81
2021/06/12 11:35:59;;;;;;;7.03;4.18;;;742.90;1280.00;;;;;;4799738;29;20039;-81
2021/06/12 11:38:33;;;;;;;5.20;4.07;;;743.20;1280.00;;;;;;4793645;29;20022;-82
2021/06/12 11:41:00;;;;;;;10.13;4.18;;;743.10;1280.00;;;;;;4790342;29;20494;-81
2021/06/12 11:43:38;;;;;;;11.80;3.80;;;743.00;1331.20;;;;;;4804205;29;20025;-82
2021/06/12 11:46:11;;;;;;;5.63;3.67;;;743.20;1331.20;;;;;;4829841;29;20076;-81
2021/06/12 11:48:46;;;;;;;7.82;3.83;;;743.30;1254.40;;;;;;4864200;29;20365;-81
2021/06/12 11:51:41;;;;;;;5.65;3.40;;;768.00;1254.40;;;;;;4863567;29;20101;-82
2021/06/12 11:54:15;;;;;;;5.38;3.22;;;768.10;1254.40;;;;;;4880296;29;20021;-81
2021/06/12 11:56:46;;;;;;;6.65;3.28;;;768.10;1228.80;;;;;;4863929;29;20033;-82
2021/06/12 11:59:15;;;;;;;6.25;3.08;;;768.20;1228.80;;;;;;4880424;29;20048;-81
2021/06/12 12:01:57;;;;;;;4.53;3.35;;;768.20;1203.20;;;;;;4876930;29;20500;-81
2021/06/12 12:04:24;;;;;;;9.82;2.90;;;743.20;1228.80;;;;;;4877815;29;20041;-83
2021/06/12 12:06:55;;;;;;;4.43;3.13;;;768.10;1203.20;;;;;;4862484;29;20116;-81
2021/06/12 12:09:30;;;;;;;8.82;2.97;;;743.30;1203.20;;;;;;4862468;29;20497;-82
2021/06/12 12:12:00;;;;;;;4.63;2.90;;;768.00;1177.60;;;;;;4862336;29;20571;-80
2021/06/12 12:14:55;;;;;;;6.03;3.08;;;768.20;1177.60;;;;;;4861258;29;20120;-82
2021/06/12 12:17:26;;;;;;;6.25;3.03;;;768.20;1203.20;;;;;;4863449;29;20601;-81
2021/06/12 12:20:02;;;;;;;5.45;3.10;;;743.30;1254.40;;;;;;4879915;29;20033;-81